sensor_id;sensor_type;location;lat;lon;timestamp;P1;durP1;ratioP1;P2;durP2;ratioP2
33696;SDS011;20031;43.416;23.232;2022-10-13T00:01:10;13.38;;;9.45;;
33696;SDS011;20031;43.416;23.232;2022-10-13T00:03:39;14.73;;;9.52;;
33696;SDS011;20031;43.416;23.232;2022-10-13T00:06:06;16.98;;;9.98;;
33696;SDS011;20031;43.416;23.232;2022-10-13T00:08:34;21.83;;;9.38;;
33696;SDS011;20031;43.416;23.232;2022-10-13T00:11:00;20.42;;;10.18;;
33696;SDS011;20031;43.416;23.232;2022-10-13T00:13:26;14.50;;;8.70;;
33696;SDS011;20031;43.416;23.232;2022-10-13T00:15:52;15.27;;;9.35;;
33696;SDS011;20031;43.416;23.232;2022-10-13T00:18:18;12.30;;;8.93;;
33696;SDS011;20031;43.416;23.232;2022-10-13T00:20:44;16.58;;;8.82;;
33696;SDS011;20031;43.416;23.232;2022-10-13T00:23:11;17.40;;;8.63;;
33696;SDS011;20031;43.416;23.232;2022-10-13T00:25:41;16.17;;;9.73;;
33696;SDS011;20031;43.416;23.232;2022-10-13T00:28:11;15.57;;;9.55;;
33696;SDS011;20031;43.416;23.232;2022-10-13T00:30:37;18.85;;;9.23;;
33696;SDS011;20031;43.416;23.232;2022-10-13T00:33:04;12.82;;;9.18;;
33696;SDS011;20031;43.416;23.232;2022-10-13T00:35:30;17.52;;;9.43;;
33696;SDS011;20031;43.416;23.232;2022-10-13T00:37:56;22.35;;;8.93;;
33696;SDS011;20031;43.416;23.232;2022-10-13T00:40:21;15.18;;;9.10;;
33696;SDS011;20031;43.416;23.232;2022-10-13T00:42:47;20.52;;;9.98;;
33696;SDS011;20031;43.416;23.232;2022-10-13T00:45:23;17.77;;;9.40;;
33696;SDS011;20031;43.416;23.232;2022-10-13T00:47:51;15.93;;;9.10;;
33696;SDS011;20031;43.416;23.232;2022-10-13T00:50:22;16.15;;;9.60;;
33696;SDS011;20031;43.416;23.232;2022-10-13T00:52:51;15.68;;;9.15;;
33696;SDS011;20031;43.416;23.232;2022-10-13T00:55:20;16.52;;;10.13;;
33696;SDS011;20031;43.416;23.232;2022-10-13T00:57:49;22.05;;;9.82;;
33696;SDS011;20031;43.416;23.232;2022-10-13T01:00:23;18.00;;;9.27;;
33696;SDS011;20031;43.416;23.232;2022-10-13T01:02:49;11.35;;;8.50;;
33696;SDS011;20031;43.416;23.232;2022-10-13T01:05:15;16.52;;;9.50;;
33696;SDS011;20031;43.416;23.232;2022-10-13T01:07:42;18.88;;;10.02;;
33696;SDS011;20031;43.416;23.232;2022-10-13T01:10:08;18.05;;;9.25;;
33696;SDS011;20031;43.416;23.232;2022-10-13T01:12:38;13.65;;;9.50;;
33696;SDS011;20031;43.416;23.232;2022-10-13T01:15:49;16.63;;;9.00;;
33696;SDS011;20031;43.416;23.232;2022-10-13T01:18:21;19.52;;;9.15;;
33696;SDS011;20031;43.416;23.232;2022-10-13T01:27:37;17.83;;;9.45;;
33696;SDS011;20031;43.416;23.232;2022-10-13T01:35:10;17.40;;;9.77;;
33696;SDS011;20031;43.416;23.232;2022-10-13T01:37:44;17.52;;;10.68;;
33696;SDS011;20031;43.416;23.232;2022-10-13T01:40:25;19.63;;;10.95;;
33696;SDS011;20031;43.416;23.232;2022-10-13T01:43:04;19.95;;;10.32;;
33696;SDS011;20031;43.416;23.232;2022-10-13T01:45:41;20.00;;;10.48;;
33696;SDS011;20031;43.416;23.232;2022-10-13T01:48:19;20.08;;;9.45;;
33696;SDS011;20031;43.416;23.232;2022-10-13T01:50:46;16.70;;;8.68;;
33696;SDS011;20031;43.416;23.232;2022-10-13T01:53:13;14.95;;;8.50;;
33696;SDS011;20031;43.416;23.232;2022-10-13T01:55:52;18.23;;;8.85;;
33696;SDS011;20031;43.416;23.232;2022-10-13T01:58:19;14.00;;;8.70;;
33696;SDS011;20031;43.416;23.232;2022-10-13T02:01:29;13.63;;;8.23;;
33696;SDS011;20031;43.416;23.232;2022-10-13T02:06:31;16.27;;;8.90;;
33696;SDS011;20031;43.416;23.232;2022-10-13T02:09:08;18.70;;;8.18;;
33696;SDS011;20031;43.416;23.232;2022-10-13T02:11:39;14.10;;;9.15;;
33696;SDS011;20031;43.416;23.232;2022-10-13T02:14:15;18.35;;;11.63;;
33696;SDS011;20031;43.416;23.232;2022-10-13T02:16:46;20.13;;;10.93;;
33696;SDS011;20031;43.416;23.232;2022-10-13T02:19:15;21.65;;;10.48;;
33696;SDS011;20031;43.416;23.232;2022-10-13T02:21:43;23.63;;;11.38;;
33696;SDS011;20031;43.416;23.232;2022-10-13T02:24:09;16.48;;;10.38;;
33696;SDS011;20031;43.416;23.232;2022-10-13T02:26:36;20.02;;;10.32;;
33696;SDS011;20031;43.416;23.232;2022-10-13T02:29:14;20.17;;;10.18;;
33696;SDS011;20031;43.416;23.232;2022-10-13T02:31:42;24.67;;;11.23;;
33696;SDS011;20031;43.416;23.232;2022-10-13T02:34:08;39.63;;;14.57;;
33696;SDS011;20031;43.416;23.232;2022-10-13T02:36:34;30.08;;;14.02;;
33696;SDS011;20031;43.416;23.232;2022-10-13T02:39:01;27.63;;;14.57;;
33696;SDS011;20031;43.416;23.232;2022-10-13T02:41:28;28.90;;;13.35;;
33696;SDS011;20031;43.416;23.232;2022-10-13T02:43:53;34.75;;;15.82;;
33696;SDS011;20031;43.416;23.232;2022-10-13T02:46:19;32.72;;;14.65;;
33696;SDS011;20031;43.416;23.232;2022-10-13T02:48:44;24.85;;;13.27;;
33696;SDS011;20031;43.416;23.232;2022-10-13T02:51:09;19.55;;;12.15;;
33696;SDS011;20031;43.416;23.232;2022-10-13T02:53:35;18.55;;;11.40;;
33696;SDS011;20031;43.416;23.232;2022-10-13T02:56:00;19.50;;;11.60;;
33696;SDS011;20031;43.416;23.232;2022-10-13T02:58:26;20.63;;;11.60;;
33696;SDS011;20031;43.416;23.232;2022-10-13T03:00:51;24.95;;;12.45;;
33696;SDS011;20031;43.416;23.232;2022-10-13T03:03:17;18.77;;;11.27;;
33696;SDS011;20031;43.416;23.232;2022-10-13T03:05:42;18.98;;;11.50;;
33696;SDS011;20031;43.416;23.232;2022-10-13T03:08:08;22.33;;;11.57;;
33696;SDS011;20031;43.416;23.232;2022-10-13T03:10:34;18.20;;;11.93;;
33696;SDS011;20031;43.416;23.232;2022-10-13T03:12:59;28.13;;;11.93;;
33696;SDS011;20031;43.416;23.232;2022-10-13T03:15:25;19.98;;;11.18;;
33696;SDS011;20031;43.416;23.232;2022-10-13T03:17:50;20.95;;;10.75;;
33696;SDS011;20031;43.416;23.232;2022-10-13T03:20:16;24.10;;;10.57;;
33696;SDS011;20031;43.416;23.232;2022-10-13T03:22:41;24.35;;;10.73;;
33696;SDS011;20031;43.416;23.232;2022-10-13T03:25:07;24.33;;;10.25;;
33696;SDS011;20031;43.416;23.232;2022-10-13T03:27:33;20.88;;;9.98;;
33696;SDS011;20031;43.416;23.232;2022-10-13T03:29:58;27.33;;;9.23;;
33696;SDS011;20031;43.416;23.232;2022-10-13T03:32:24;22.80;;;8.60;;
33696;SDS011;20031;43.416;23.232;2022-10-13T03:34:49;27.77;;;8.52;;
33696;SDS011;20031;43.416;23.232;2022-10-13T03:37:15;24.83;;;8.20;;
33696;SDS011;20031;43.416;23.232;2022-10-13T03:39:41;17.15;;;7.88;;
33696;SDS011;20031;43.416;23.232;2022-10-13T03:42:06;20.20;;;8.10;;
33696;SDS011;20031;43.416;23.232;2022-10-13T03:44:32;16.65;;;7.70;;
33696;SDS011;20031;43.416;23.232;2022-10-13T03:46:57;16.45;;;7.25;;
33696;SDS011;20031;43.416;23.232;2022-10-13T03:49:23;22.48;;;7.93;;
33696;SDS011;20031;43.416;23.232;2022-10-13T03:51:48;14.07;;;8.02;;
33696;SDS011;20031;43.416;23.232;2022-10-13T03:54:14;16.88;;;7.97;;
33696;SDS011;20031;43.416;23.232;2022-10-13T03:56:39;22.52;;;7.75;;
33696;SDS011;20031;43.416;23.232;2022-10-13T03:59:06;22.02;;;9.00;;
33696;SDS011;20031;43.416;23.232;2022-10-13T04:01:32;21.35;;;8.25;;
33696;SDS011;20031;43.416;23.232;2022-10-13T04:03:58;17.00;;;9.10;;
33696;SDS011;20031;43.416;23.232;2022-10-13T04:06:26;17.70;;;8.75;;
33696;SDS011;20031;43.416;23.232;2022-10-13T04:08:52;19.15;;;8.70;;
33696;SDS011;20031;43.416;23.232;2022-10-13T04:11:17;17.15;;;9.25;;
33696;SDS011;20031;43.416;23.232;2022-10-13T04:13:44;19.60;;;8.73;;
33696;SDS011;20031;43.416;23.232;2022-10-13T04:18:39;13.65;;;8.10;;
33696;SDS011;20031;43.416;23.232;2022-10-13T04:21:09;29.73;;;8.23;;
33696;SDS011;20031;43.416;23.232;2022-10-13T04:23:37;19.02;;;8.00;;
33696;SDS011;20031;43.416;23.232;2022-10-13T04:26:03;19.85;;;7.60;;
33696;SDS011;20031;43.416;23.232;2022-10-13T04:28:29;16.55;;;7.78;;
33696;SDS011;20031;43.416;23.232;2022-10-13T04:30:57;17.25;;;7.82;;
33696;SDS011;20031;43.416;23.232;2022-10-13T04:33:23;17.83;;;8.32;;
33696;SDS011;20031;43.416;23.232;2022-10-13T04:35:49;28.50;;;9.20;;
33696;SDS011;20031;43.416;23.232;2022-10-13T04:38:14;38.92;;;12.15;;
33696;SDS011;20031;43.416;23.232;2022-10-13T04:40:39;30.98;;;12.05;;
33696;SDS011;20031;43.416;23.232;2022-10-13T04:43:05;25.52;;;11.80;;
33696;SDS011;20031;43.416;23.232;2022-10-13T04:45:30;29.42;;;11.48;;
33696;SDS011;20031;43.416;23.232;2022-10-13T04:47:56;34.35;;;11.88;;
33696;SDS011;20031;43.416;23.232;2022-10-13T04:50:22;35.63;;;11.60;;
33696;SDS011;20031;43.416;23.232;2022-10-13T04:52:47;40.08;;;12.70;;
33696;SDS011;20031;43.416;23.232;2022-10-13T04:55:13;54.10;;;12.27;;
33696;SDS011;20031;43.416;23.232;2022-10-13T04:57:38;48.50;;;11.73;;
33696;SDS011;20031;43.416;23.232;2022-10-13T05:00:04;29.33;;;12.25;;
33696;SDS011;20031;43.416;23.232;2022-10-13T05:02:31;36.38;;;12.00;;
33696;SDS011;20031;43.416;23.232;2022-10-13T05:04:59;29.05;;;12.50;;
33696;SDS011;20031;43.416;23.232;2022-10-13T05:07:24;32.35;;;11.20;;
33696;SDS011;20031;43.416;23.232;2022-10-13T05:09:50;35.53;;;11.32;;
33696;SDS011;20031;43.416;23.232;2022-10-13T05:12:16;29.17;;;11.65;;
33696;SDS011;20031;43.416;23.232;2022-10-13T05:14:41;29.85;;;13.18;;
33696;SDS011;20031;43.416;23.232;2022-10-13T05:17:06;48.80;;;14.48;;
33696;SDS011;20031;43.416;23.232;2022-10-13T05:19:32;49.83;;;14.35;;
33696;SDS011;20031;43.416;23.232;2022-10-13T05:21:57;72.78;;;12.10;;
33696;SDS011;20031;43.416;23.232;2022-10-13T05:24:23;41.10;;;10.70;;
33696;SDS011;20031;43.416;23.232;2022-10-13T05:27:02;56.20;;;11.20;;
33696;SDS011;20031;43.416;23.232;2022-10-13T05:29:28;77.75;;;13.48;;
33696;SDS011;20031;43.416;23.232;2022-10-13T05:31:53;76.53;;;12.57;;
33696;SDS011;20031;43.416;23.232;2022-10-13T05:34:19;82.70;;;12.60;;
33696;SDS011;20031;43.416;23.232;2022-10-13T05:36:44;102.55;;;14.00;;
33696;SDS011;20031;43.416;23.232;2022-10-13T05:39:10;99.40;;;14.25;;
33696;SDS011;20031;43.416;23.232;2022-10-13T05:41:35;84.72;;;12.38;;
33696;SDS011;20031;43.416;23.232;2022-10-13T05:44:02;92.13;;;13.07;;
33696;SDS011;20031;43.416;23.232;2022-10-13T05:46:30;82.00;;;12.23;;
33696;SDS011;20031;43.416;23.232;2022-10-13T05:48:56;61.10;;;11.40;;
33696;SDS011;20031;43.416;23.232;2022-10-13T05:51:22;54.28;;;11.27;;
33696;SDS011;20031;43.416;23.232;2022-10-13T05:54:35;59.70;;;12.82;;
33696;SDS011;20031;43.416;23.232;2022-10-13T05:56:42;66.93;;;13.82;;
33696;SDS011;20031;43.416;23.232;2022-10-13T05:59:16;57.40;;;12.05;;
33696;SDS011;20031;43.416;23.232;2022-10-13T06:01:43;61.13;;;13.77;;
33696;SDS011;20031;43.416;23.232;2022-10-13T06:04:12;86.00;;;15.00;;
33696;SDS011;20031;43.416;23.232;2022-10-13T06:06:41;101.75;;;16.90;;
33696;SDS011;20031;43.416;23.232;2022-10-13T06:09:06;76.38;;;16.45;;
33696;SDS011;20031;43.416;23.232;2022-10-13T06:11:32;75.93;;;15.70;;
33696;SDS011;20031;43.416;23.232;2022-10-13T06:13:57;86.68;;;16.17;;
33696;SDS011;20031;43.416;23.232;2022-10-13T06:16:23;68.93;;;14.63;;
33696;SDS011;20031;43.416;23.232;2022-10-13T06:18:48;100.88;;;17.98;;
33696;SDS011;20031;43.416;23.232;2022-10-13T06:21:14;95.70;;;18.83;;
33696;SDS011;20031;43.416;23.232;2022-10-13T06:23:39;98.57;;;19.02;;
33696;SDS011;20031;43.416;23.232;2022-10-13T06:26:05;104.00;;;21.17;;
33696;SDS011;20031;43.416;23.232;2022-10-13T06:28:32;113.88;;;21.98;;
33696;SDS011;20031;43.416;23.232;2022-10-13T06:30:58;124.93;;;19.77;;
33696;SDS011;20031;43.416;23.232;2022-10-13T06:33:23;92.78;;;19.95;;
33696;SDS011;20031;43.416;23.232;2022-10-13T06:35:50;109.40;;;19.45;;
33696;SDS011;20031;43.416;23.232;2022-10-13T06:38:16;93.50;;;20.58;;
33696;SDS011;20031;43.416;23.232;2022-10-13T06:40:42;83.45;;;18.45;;
33696;SDS011;20031;43.416;23.232;2022-10-13T06:43:08;65.47;;;17.40;;
33696;SDS011;20031;43.416;23.232;2022-10-13T06:45:33;70.30;;;16.65;;
33696;SDS011;20031;43.416;23.232;2022-10-13T06:47:59;63.35;;;18.23;;
33696;SDS011;20031;43.416;23.232;2022-10-13T06:50:24;78.72;;;17.45;;
33696;SDS011;20031;43.416;23.232;2022-10-13T06:52:50;74.95;;;17.83;;
33696;SDS011;20031;43.416;23.232;2022-10-13T06:55:15;60.90;;;17.05;;
33696;SDS011;20031;43.416;23.232;2022-10-13T06:57:41;59.47;;;16.67;;
33696;SDS011;20031;43.416;23.232;2022-10-13T07:00:07;109.07;;;18.38;;
33696;SDS011;20031;43.416;23.232;2022-10-13T07:02:33;89.28;;;18.75;;
33696;SDS011;20031;43.416;23.232;2022-10-13T07:04:58;105.70;;;19.05;;
33696;SDS011;20031;43.416;23.232;2022-10-13T07:07:24;72.75;;;17.20;;
33696;SDS011;20031;43.416;23.232;2022-10-13T07:09:50;59.00;;;16.85;;
33696;SDS011;20031;43.416;23.232;2022-10-13T07:12:15;79.85;;;18.77;;
33696;SDS011;20031;43.416;23.232;2022-10-13T07:14:41;54.22;;;16.63;;
33696;SDS011;20031;43.416;23.232;2022-10-13T07:17:06;48.70;;;15.98;;
33696;SDS011;20031;43.416;23.232;2022-10-13T07:19:32;47.05;;;16.17;;
33696;SDS011;20031;43.416;23.232;2022-10-13T07:21:58;45.15;;;14.45;;
33696;SDS011;20031;43.416;23.232;2022-10-13T07:24:23;34.72;;;13.25;;
33696;SDS011;20031;43.416;23.232;2022-10-13T07:26:49;41.75;;;13.93;;
33696;SDS011;20031;43.416;23.232;2022-10-13T07:29:14;43.42;;;14.65;;
33696;SDS011;20031;43.416;23.232;2022-10-13T07:31:44;33.65;;;14.38;;
33696;SDS011;20031;43.416;23.232;2022-10-13T07:34:10;39.35;;;15.07;;
33696;SDS011;20031;43.416;23.232;2022-10-13T07:36:36;25.50;;;14.35;;
33696;SDS011;20031;43.416;23.232;2022-10-13T07:39:04;50.63;;;14.95;;
33696;SDS011;20031;43.416;23.232;2022-10-13T07:41:30;35.38;;;14.32;;
33696;SDS011;20031;43.416;23.232;2022-10-13T07:43:56;41.60;;;15.35;;
33696;SDS011;20031;43.416;23.232;2022-10-13T07:46:22;36.33;;;15.32;;
33696;SDS011;20031;43.416;23.232;2022-10-13T07:48:48;39.58;;;15.13;;
33696;SDS011;20031;43.416;23.232;2022-10-13T07:51:14;49.40;;;18.45;;
33696;SDS011;20031;43.416;23.232;2022-10-13T07:53:40;50.17;;;18.42;;
33696;SDS011;20031;43.416;23.232;2022-10-13T07:56:07;59.30;;;19.98;;
33696;SDS011;20031;43.416;23.232;2022-10-13T07:58:38;51.97;;;20.52;;
33696;SDS011;20031;43.416;23.232;2022-10-13T08:01:09;52.00;;;18.98;;
33696;SDS011;20031;43.416;23.232;2022-10-13T08:03:35;39.78;;;18.60;;
33696;SDS011;20031;43.416;23.232;2022-10-13T08:06:02;48.03;;;18.65;;
33696;SDS011;20031;43.416;23.232;2022-10-13T08:08:29;47.75;;;19.50;;
33696;SDS011;20031;43.416;23.232;2022-10-13T08:11:05;34.28;;;17.88;;
33696;SDS011;20031;43.416;23.232;2022-10-13T08:13:33;162.50;;;21.98;;
33696;SDS011;20031;43.416;23.232;2022-10-13T08:16:00;90.97;;;20.77;;
33696;SDS011;20031;43.416;23.232;2022-10-13T08:18:26;87.10;;;21.60;;
33696;SDS011;20031;43.416;23.232;2022-10-13T08:20:53;70.82;;;18.90;;
33696;SDS011;20031;43.416;23.232;2022-10-13T08:23:25;35.35;;;17.27;;
33696;SDS011;20031;43.416;23.232;2022-10-13T08:25:50;37.50;;;17.83;;
33696;SDS011;20031;43.416;23.232;2022-10-13T08:28:18;29.02;;;16.02;;
33696;SDS011;20031;43.416;23.232;2022-10-13T08:30:48;30.33;;;16.85;;
33696;SDS011;20031;43.416;23.232;2022-10-13T08:33:23;49.20;;;18.35;;
33696;SDS011;20031;43.416;23.232;2022-10-13T08:35:49;46.05;;;17.50;;
33696;SDS011;20031;43.416;23.232;2022-10-13T08:38:15;42.13;;;17.52;;
33696;SDS011;20031;43.416;23.232;2022-10-13T08:40:45;45.10;;;18.75;;
33696;SDS011;20031;43.416;23.232;2022-10-13T08:43:13;38.80;;;17.08;;
33696;SDS011;20031;43.416;23.232;2022-10-13T08:45:41;34.20;;;16.95;;
33696;SDS011;20031;43.416;23.232;2022-10-13T08:48:25;43.58;;;16.50;;
33696;SDS011;20031;43.416;23.232;2022-10-13T08:50:55;46.75;;;17.35;;
33696;SDS011;20031;43.416;23.232;2022-10-13T08:53:29;42.88;;;19.67;;
33696;SDS011;20031;43.416;23.232;2022-10-13T08:55:56;36.35;;;18.25;;
33696;SDS011;20031;43.416;23.232;2022-10-13T08:58:28;42.70;;;16.38;;
33696;SDS011;20031;43.416;23.232;2022-10-13T09:06:24;55.00;;;18.58;;
33696;SDS011;20031;43.416;23.232;2022-10-13T09:08:54;32.42;;;14.35;;
33696;SDS011;20031;43.416;23.232;2022-10-13T09:11:21;29.63;;;13.40;;
33696;SDS011;20031;43.416;23.232;2022-10-13T09:13:47;39.53;;;16.08;;
33696;SDS011;20031;43.416;23.232;2022-10-13T09:16:13;24.77;;;13.25;;
33696;SDS011;20031;43.416;23.232;2022-10-13T09:18:38;30.63;;;14.60;;
33696;SDS011;20031;43.416;23.232;2022-10-13T09:23:50;44.45;;;15.93;;
33696;SDS011;20031;43.416;23.232;2022-10-13T09:26:21;41.47;;;16.33;;
33696;SDS011;20031;43.416;23.232;2022-10-13T09:28:48;33.90;;;14.75;;
33696;SDS011;20031;43.416;23.232;2022-10-13T09:31:24;27.08;;;14.15;;
33696;SDS011;20031;43.416;23.232;2022-10-13T09:34:01;48.20;;;15.60;;
33696;SDS011;20031;43.416;23.232;2022-10-13T09:36:37;33.00;;;13.43;;
33696;SDS011;20031;43.416;23.232;2022-10-13T09:41:30;37.85;;;12.02;;
33696;SDS011;20031;43.416;23.232;2022-10-13T09:43:59;439.55;;;27.48;;
33696;SDS011;20031;43.416;23.232;2022-10-13T09:51:47;28.17;;;12.50;;
33696;SDS011;20031;43.416;23.232;2022-10-13T09:54:23;25.83;;;13.10;;
33696;SDS011;20031;43.416;23.232;2022-10-13T09:57:06;26.13;;;12.02;;
33696;SDS011;20031;43.416;23.232;2022-10-13T09:59:52;32.70;;;12.43;;
33696;SDS011;20031;43.416;23.232;2022-10-13T10:05:25;22.48;;;11.80;;
33696;SDS011;20031;43.416;23.232;2022-10-13T10:08:10;23.15;;;11.35;;
33696;SDS011;20031;43.416;23.232;2022-10-13T10:10:41;21.85;;;11.27;;
33696;SDS011;20031;43.416;23.232;2022-10-13T10:13:10;24.90;;;12.25;;
33696;SDS011;20031;43.416;23.232;2022-10-13T10:18:17;31.73;;;11.27;;
33696;SDS011;20031;43.416;23.232;2022-10-13T10:36:22;25.38;;;11.25;;
33696;SDS011;20031;43.416;23.232;2022-10-13T10:39:02;23.05;;;10.98;;
33696;SDS011;20031;43.416;23.232;2022-10-13T10:44:31;27.25;;;11.90;;
33696;SDS011;20031;43.416;23.232;2022-10-13T10:47:01;42.90;;;10.82;;
33696;SDS011;20031;43.416;23.232;2022-10-13T10:49:35;32.72;;;10.48;;
33696;SDS011;20031;43.416;23.232;2022-10-13T10:52:13;26.45;;;12.05;;
33696;SDS011;20031;43.416;23.232;2022-10-13T11:00:33;17.40;;;8.48;;
33696;SDS011;20031;43.416;23.232;2022-10-13T11:08:25;25.98;;;8.88;;
33696;SDS011;20031;43.416;23.232;2022-10-13T11:13:49;40.67;;;8.73;;
33696;SDS011;20031;43.416;23.232;2022-10-13T11:18:59;27.13;;;9.00;;
33696;SDS011;20031;43.416;23.232;2022-10-13T11:45:44;24.95;;;8.50;;
33696;SDS011;20031;43.416;23.232;2022-10-13T11:53:49;26.83;;;8.32;;
33696;SDS011;20031;43.416;23.232;2022-10-13T11:56:42;21.38;;;7.65;;
33696;SDS011;20031;43.416;23.232;2022-10-13T12:01:58;57.78;;;8.68;;
33696;SDS011;20031;43.416;23.232;2022-10-13T12:04:37;16.65;;;6.80;;
33696;SDS011;20031;43.416;23.232;2022-10-13T12:07:05;17.77;;;6.50;;
33696;SDS011;20031;43.416;23.232;2022-10-13T12:09:33;28.83;;;6.70;;
33696;SDS011;20031;43.416;23.232;2022-10-13T12:12:04;18.05;;;5.40;;
33696;SDS011;20031;43.416;23.232;2022-10-13T12:14:39;17.88;;;6.20;;
33696;SDS011;20031;43.416;23.232;2022-10-13T12:17:42;11.32;;;5.78;;
33696;SDS011;20031;43.416;23.232;2022-10-13T12:20:25;11.18;;;6.20;;
33696;SDS011;20031;43.416;23.232;2022-10-13T12:22:53;23.23;;;5.80;;
33696;SDS011;20031;43.416;23.232;2022-10-13T12:25:20;20.00;;;6.65;;
33696;SDS011;20031;43.416;23.232;2022-10-13T12:27:49;11.23;;;5.80;;
33696;SDS011;20031;43.416;23.232;2022-10-13T12:30:21;16.17;;;6.25;;
33696;SDS011;20031;43.416;23.232;2022-10-13T12:32:52;16.63;;;6.05;;
33696;SDS011;20031;43.416;23.232;2022-10-13T12:35:22;25.40;;;6.47;;
33696;SDS011;20031;43.416;23.232;2022-10-13T12:37:50;25.85;;;7.07;;
33696;SDS011;20031;43.416;23.232;2022-10-13T12:40:17;22.92;;;6.85;;
33696;SDS011;20031;43.416;23.232;2022-10-13T12:42:43;25.58;;;6.28;;
33696;SDS011;20031;43.416;23.232;2022-10-13T12:45:13;20.63;;;6.90;;
33696;SDS011;20031;43.416;23.232;2022-10-13T12:50:22;30.70;;;8.18;;
33696;SDS011;20031;43.416;23.232;2022-10-13T12:55:33;20.90;;;6.25;;
33696;SDS011;20031;43.416;23.232;2022-10-13T12:58:00;10.90;;;5.55;;
33696;SDS011;20031;43.416;23.232;2022-10-13T13:00:27;13.85;;;5.97;;
33696;SDS011;20031;43.416;23.232;2022-10-13T13:02:55;25.65;;;8.40;;
33696;SDS011;20031;43.416;23.232;2022-10-13T13:05:36;25.77;;;8.48;;
33696;SDS011;20031;43.416;23.232;2022-10-13T13:08:05;25.75;;;9.07;;
33696;SDS011;20031;43.416;23.232;2022-10-13T13:10:53;17.33;;;6.68;;
33696;SDS011;20031;43.416;23.232;2022-10-13T13:13:24;20.05;;;7.20;;
33696;SDS011;20031;43.416;23.232;2022-10-13T13:15:50;25.77;;;8.95;;
33696;SDS011;20031;43.416;23.232;2022-10-13T13:20:51;21.75;;;7.30;;
33696;SDS011;20031;43.416;23.232;2022-10-13T13:23:17;13.57;;;6.35;;
33696;SDS011;20031;43.416;23.232;2022-10-13T13:25:47;17.67;;;7.15;;
33696;SDS011;20031;43.416;23.232;2022-10-13T13:28:27;16.38;;;6.68;;
33696;SDS011;20031;43.416;23.232;2022-10-13T13:30:53;17.67;;;7.50;;
33696;SDS011;20031;43.416;23.232;2022-10-13T13:33:19;21.00;;;6.88;;
33696;SDS011;20031;43.416;23.232;2022-10-13T13:35:44;24.13;;;6.45;;
33696;SDS011;20031;43.416;23.232;2022-10-13T13:38:12;31.10;;;7.28;;
33696;SDS011;20031;43.416;23.232;2022-10-13T13:40:37;29.85;;;7.18;;
33696;SDS011;20031;43.416;23.232;2022-10-13T13:43:03;22.40;;;7.05;;
33696;SDS011;20031;43.416;23.232;2022-10-13T13:45:28;25.70;;;6.97;;
33696;SDS011;20031;43.416;23.232;2022-10-13T13:47:54;30.33;;;7.70;;
33696;SDS011;20031;43.416;23.232;2022-10-13T13:50:21;15.35;;;6.57;;
33696;SDS011;20031;43.416;23.232;2022-10-13T13:52:49;33.72;;;8.02;;
33696;SDS011;20031;43.416;23.232;2022-10-13T13:55:15;22.83;;;7.35;;
33696;SDS011;20031;43.416;23.232;2022-10-13T13:57:41;35.83;;;7.30;;
33696;SDS011;20031;43.416;23.232;2022-10-13T14:00:08;25.10;;;7.45;;
33696;SDS011;20031;43.416;23.232;2022-10-13T14:02:36;16.98;;;6.82;;
33696;SDS011;20031;43.416;23.232;2022-10-13T14:05:01;24.27;;;7.00;;
33696;SDS011;20031;43.416;23.232;2022-10-13T14:07:27;27.55;;;7.38;;
33696;SDS011;20031;43.416;23.232;2022-10-13T14:09:53;24.33;;;7.68;;
33696;SDS011;20031;43.416;23.232;2022-10-13T14:12:18;26.35;;;8.50;;
33696;SDS011;20031;43.416;23.232;2022-10-13T14:14:44;48.47;;;11.13;;
33696;SDS011;20031;43.416;23.232;2022-10-13T14:17:09;37.88;;;9.82;;
33696;SDS011;20031;43.416;23.232;2022-10-13T14:19:35;30.98;;;8.73;;
33696;SDS011;20031;43.416;23.232;2022-10-13T14:22:00;20.00;;;8.10;;
33696;SDS011;20031;43.416;23.232;2022-10-13T14:24:26;49.08;;;9.77;;
33696;SDS011;20031;43.416;23.232;2022-10-13T14:26:52;58.03;;;12.43;;
33696;SDS011;20031;43.416;23.232;2022-10-13T14:29:18;55.33;;;11.48;;
33696;SDS011;20031;43.416;23.232;2022-10-13T14:31:44;33.47;;;10.60;;
33696;SDS011;20031;43.416;23.232;2022-10-13T14:34:09;39.35;;;8.45;;
33696;SDS011;20031;43.416;23.232;2022-10-13T14:36:35;58.45;;;13.88;;
33696;SDS011;20031;43.416;23.232;2022-10-13T14:39:00;44.30;;;11.30;;
33696;SDS011;20031;43.416;23.232;2022-10-13T14:41:26;38.72;;;12.55;;
33696;SDS011;20031;43.416;23.232;2022-10-13T14:43:52;50.55;;;14.25;;
33696;SDS011;20031;43.416;23.232;2022-10-13T14:46:21;30.55;;;8.77;;
33696;SDS011;20031;43.416;23.232;2022-10-13T14:48:47;29.77;;;9.07;;
33696;SDS011;20031;43.416;23.232;2022-10-13T14:51:13;37.38;;;9.40;;
33696;SDS011;20031;43.416;23.232;2022-10-13T14:53:39;21.58;;;8.70;;
33696;SDS011;20031;43.416;23.232;2022-10-13T14:58:46;31.75;;;9.88;;
33696;SDS011;20031;43.416;23.232;2022-10-13T15:01:13;20.75;;;8.43;;
33696;SDS011;20031;43.416;23.232;2022-10-13T15:03:39;32.63;;;9.93;;
33696;SDS011;20031;43.416;23.232;2022-10-13T15:06:05;34.38;;;9.15;;
33696;SDS011;20031;43.416;23.232;2022-10-13T15:08:30;28.70;;;10.50;;
33696;SDS011;20031;43.416;23.232;2022-10-13T15:10:59;28.98;;;10.60;;
33696;SDS011;20031;43.416;23.232;2022-10-13T15:13:28;40.80;;;12.63;;
33696;SDS011;20031;43.416;23.232;2022-10-13T15:15:53;24.10;;;9.15;;
33696;SDS011;20031;43.416;23.232;2022-10-13T15:18:20;20.98;;;7.72;;
33696;SDS011;20031;43.416;23.232;2022-10-13T15:20:45;26.85;;;8.82;;
33696;SDS011;20031;43.416;23.232;2022-10-13T15:23:12;16.25;;;8.07;;
33696;SDS011;20031;43.416;23.232;2022-10-13T15:25:38;27.48;;;9.00;;
33696;SDS011;20031;43.416;23.232;2022-10-13T15:28:04;33.13;;;9.05;;
33696;SDS011;20031;43.416;23.232;2022-10-13T15:30:33;21.15;;;8.15;;
33696;SDS011;20031;43.416;23.232;2022-10-13T15:32:58;15.55;;;7.85;;
33696;SDS011;20031;43.416;23.232;2022-10-13T15:35:27;27.77;;;9.27;;
33696;SDS011;20031;43.416;23.232;2022-10-13T15:37:53;18.30;;;7.80;;
33696;SDS011;20031;43.416;23.232;2022-10-13T15:40:19;30.95;;;8.70;;
33696;SDS011;20031;43.416;23.232;2022-10-13T15:42:44;24.95;;;8.77;;
33696;SDS011;20031;43.416;23.232;2022-10-13T15:45:10;19.08;;;8.38;;
33696;SDS011;20031;43.416;23.232;2022-10-13T15:47:36;30.92;;;8.32;;
33696;SDS011;20031;43.416;23.232;2022-10-13T15:50:02;23.70;;;8.23;;
33696;SDS011;20031;43.416;23.232;2022-10-13T15:52:28;20.17;;;8.27;;
33696;SDS011;20031;43.416;23.232;2022-10-13T15:54:53;34.65;;;8.68;;
33696;SDS011;20031;43.416;23.232;2022-10-13T15:57:19;45.97;;;10.85;;
33696;SDS011;20031;43.416;23.232;2022-10-13T15:59:45;36.78;;;10.68;;
33696;SDS011;20031;43.416;23.232;2022-10-13T16:02:10;52.88;;;13.32;;
33696;SDS011;20031;43.416;23.232;2022-10-13T16:04:36;50.20;;;12.75;;
33696;SDS011;20031;43.416;23.232;2022-10-13T16:07:01;33.47;;;10.82;;
33696;SDS011;20031;43.416;23.232;2022-10-13T16:09:27;56.22;;;14.15;;
33696;SDS011;20031;43.416;23.232;2022-10-13T16:11:52;54.22;;;16.15;;
33696;SDS011;20031;43.416;23.232;2022-10-13T16:14:18;47.58;;;14.93;;
33696;SDS011;20031;43.416;23.232;2022-10-13T16:16:44;59.92;;;16.35;;